sensor_id;sensor_type;location;lat;lon;timestamp;P1;durP1;ratioP1;P2;durP2;ratioP2
23376;SDS011;14353;46.070;13.222;2022-08-01T00:00:35;0.60;;;0.60;;
23376;SDS011;14353;46.070;13.222;2022-08-01T00:03:01;0.75;;;0.52;;
23376;SDS011;14353;46.070;13.222;2022-08-01T00:05:27;0.50;;;0.50;;
23376;SDS011;14353;46.070;13.222;2022-08-01T00:07:53;0.47;;;0.47;;
23376;SDS011;14353;46.070;13.222;2022-08-01T00:10:19;0.57;;;0.57;;
23376;SDS011;14353;46.070;13.222;2022-08-01T00:12:45;0.73;;;0.70;;
23376;SDS011;14353;46.070;13.222;2022-08-01T00:15:12;0.60;;;0.60;;
23376;SDS011;14353;46.070;13.222;2022-08-01T00:17:40;0.70;;;0.70;;
23376;SDS011;14353;46.070;13.222;2022-08-01T00:20:08;0.43;;;0.43;;
23376;SDS011;14353;46.070;13.222;2022-08-01T00:22:36;0.50;;;0.50;;
23376;SDS011;14353;46.070;13.222;2022-08-01T00:25:02;0.63;;;0.60;;
23376;SDS011;14353;46.070;13.222;2022-08-01T00:27:32;0.60;;;0.60;;
23376;SDS011;14353;46.070;13.222;2022-08-01T00:29:58;0.52;;;0.52;;
23376;SDS011;14353;46.070;13.222;2022-08-01T00:32:24;0.50;;;0.50;;
23376;SDS011;14353;46.070;13.222;2022-08-01T00:34:55;0.70;;;0.70;;
23376;SDS011;14353;46.070;13.222;2022-08-01T00:37:20;0.60;;;0.60;;
23376;SDS011;14353;46.070;13.222;2022-08-01T00:39:46;0.50;;;0.50;;
23376;SDS011;14353;46.070;13.222;2022-08-01T00:42:12;0.95;;;0.70;;
23376;SDS011;14353;46.070;13.222;2022-08-01T00:44:38;0.60;;;0.60;;
23376;SDS011;14353;46.070;13.222;2022-08-01T00:47:05;0.47;;;0.47;;
23376;SDS011;14353;46.070;13.222;2022-08-01T00:49:32;0.57;;;0.50;;
23376;SDS011;14353;46.070;13.222;2022-08-01T00:51:58;0.60;;;0.60;;
23376;SDS011;14353;46.070;13.222;2022-08-01T00:54:25;0.45;;;0.45;;
23376;SDS011;14353;46.070;13.222;2022-08-01T00:56:52;0.47;;;0.47;;
23376;SDS011;14353;46.070;13.222;2022-08-01T00:59:18;0.73;;;0.45;;
23376;SDS011;14353;46.070;13.222;2022-08-01T01:01:50;0.52;;;0.52;;
23376;SDS011;14353;46.070;13.222;2022-08-01T01:04:16;0.60;;;0.60;;
23376;SDS011;14353;46.070;13.222;2022-08-01T01:06:53;0.60;;;0.60;;
23376;SDS011;14353;46.070;13.222;2022-08-01T01:09:39;0.50;;;0.50;;
23376;SDS011;14353;46.070;13.222;2022-08-01T01:12:29;0.50;;;0.50;;
23376;SDS011;14353;46.070;13.222;2022-08-01T01:17:38;0.65;;;0.65;;
23376;SDS011;14353;46.070;13.222;2022-08-01T01:20:21;0.50;;;0.50;;
23376;SDS011;14353;46.070;13.222;2022-08-01T01:28:10;0.70;;;0.60;;
23376;SDS011;14353;46.070;13.222;2022-08-01T01:30:41;0.60;;;0.60;;
23376;SDS011;14353;46.070;13.222;2022-08-01T01:33:10;0.60;;;0.60;;
23376;SDS011;14353;46.070;13.222;2022-08-01T01:35:38;0.60;;;0.60;;
23376;SDS011;14353;46.070;13.222;2022-08-01T01:38:22;1.20;;;0.60;;
23376;SDS011;14353;46.070;13.222;2022-08-01T01:40:53;0.93;;;0.60;;
23376;SDS011;14353;46.070;13.222;2022-08-01T01:43:20;0.60;;;0.60;;
23376;SDS011;14353;46.070;13.222;2022-08-01T01:45:51;0.77;;;0.60;;
23376;SDS011;14353;46.070;13.222;2022-08-01T01:48:18;0.70;;;0.70;;
23376;SDS011;14353;46.070;13.222;2022-08-01T01:50:47;0.63;;;0.60;;
23376;SDS011;14353;46.070;13.222;2022-08-01T01:53:13;0.93;;;0.68;;
23376;SDS011;14353;46.070;13.222;2022-08-01T01:55:43;0.50;;;0.50;;
23376;SDS011;14353;46.070;13.222;2022-08-01T01:58:12;0.50;;;0.50;;
23376;SDS011;14353;46.070;13.222;2022-08-01T02:00:39;0.80;;;0.80;;
23376;SDS011;14353;46.070;13.222;2022-08-01T02:03:10;0.82;;;0.60;;
23376;SDS011;14353;46.070;13.222;2022-08-01T02:05:38;0.60;;;0.60;;
23376;SDS011;14353;46.070;13.222;2022-08-01T02:08:05;0.70;;;0.60;;
23376;SDS011;14353;46.070;13.222;2022-08-01T02:10:33;0.52;;;0.52;;
23376;SDS011;14353;46.070;13.222;2022-08-01T02:13:01;0.52;;;0.52;;
23376;SDS011;14353;46.070;13.222;2022-08-01T02:15:29;0.95;;;0.60;;
23376;SDS011;14353;46.070;13.222;2022-08-01T02:17:56;0.50;;;0.50;;
23376;SDS011;14353;46.070;13.222;2022-08-01T02:20:24;0.70;;;0.70;;
23376;SDS011;14353;46.070;13.222;2022-08-01T02:22:53;0.60;;;0.60;;
23376;SDS011;14353;46.070;13.222;2022-08-01T02:25:25;0.60;;;0.60;;
23376;SDS011;14353;46.070;13.222;2022-08-01T02:27:58;1.30;;;0.65;;
23376;SDS011;14353;46.070;13.222;2022-08-01T02:30:44;0.60;;;0.60;;
23376;SDS011;14353;46.070;13.222;2022-08-01T02:33:57;0.60;;;0.60;;
23376;SDS011;14353;46.070;13.222;2022-08-01T02:36:03;0.63;;;0.63;;
23376;SDS011;14353;46.070;13.222;2022-08-01T02:38:32;0.60;;;0.60;;
23376;SDS011;14353;46.070;13.222;2022-08-01T02:41:04;1.23;;;0.60;;
23376;SDS011;14353;46.070;13.222;2022-08-01T02:43:33;0.77;;;0.70;;
23376;SDS011;14353;46.070;13.222;2022-08-01T02:46:02;0.75;;;0.70;;
23376;SDS011;14353;46.070;13.222;2022-08-01T02:48:32;0.73;;;0.70;;
23376;SDS011;14353;46.070;13.222;2022-08-01T02:51:02;0.70;;;0.70;;
23376;SDS011;14353;46.070;13.222;2022-08-01T02:53:32;0.70;;;0.70;;
23376;SDS011;14353;46.070;13.222;2022-08-01T02:56:02;0.60;;;0.60;;
23376;SDS011;14353;46.070;13.222;2022-08-01T02:58:30;0.70;;;0.70;;
23376;SDS011;14353;46.070;13.222;2022-08-01T03:00:58;0.63;;;0.63;;
23376;SDS011;14353;46.070;13.222;2022-08-01T03:03:24;0.60;;;0.60;;
23376;SDS011;14353;46.070;13.222;2022-08-01T03:05:51;0.80;;;0.80;;
23376;SDS011;14353;46.070;13.222;2022-08-01T03:08:19;0.60;;;0.60;;
23376;SDS011;14353;46.070;13.222;2022-08-01T03:10:47;0.60;;;0.60;;
23376;SDS011;14353;46.070;13.222;2022-08-01T03:13:15;0.80;;;0.80;;
23376;SDS011;14353;46.070;13.222;2022-08-01T03:15:43;0.95;;;0.63;;
23376;SDS011;14353;46.070;13.222;2022-08-01T03:18:09;0.60;;;0.60;;
23376;SDS011;14353;46.070;13.222;2022-08-01T03:20:37;0.70;;;0.70;;
23376;SDS011;14353;46.070;13.222;2022-08-01T03:23:04;0.63;;;0.60;;
23376;SDS011;14353;46.070;13.222;2022-08-01T03:25:35;0.60;;;0.60;;
23376;SDS011;14353;46.070;13.222;2022-08-01T03:28:04;0.63;;;0.63;;
23376;SDS011;14353;46.070;13.222;2022-08-01T03:30:34;0.65;;;0.65;;
23376;SDS011;14353;46.070;13.222;2022-08-01T03:33:03;0.80;;;0.70;;
23376;SDS011;14353;46.070;13.222;2022-08-01T03:35:30;0.80;;;0.73;;
23376;SDS011;14353;46.070;13.222;2022-08-01T03:38:01;0.80;;;0.80;;
23376;SDS011;14353;46.070;13.222;2022-08-01T03:43:05;0.70;;;0.70;;
23376;SDS011;14353;46.070;13.222;2022-08-01T03:45:35;0.50;;;0.50;;
23376;SDS011;14353;46.070;13.222;2022-08-01T03:48:14;0.60;;;0.60;;
23376;SDS011;14353;46.070;13.222;2022-08-01T03:50:43;0.70;;;0.70;;
23376;SDS011;14353;46.070;13.222;2022-08-01T03:53:15;1.08;;;0.63;;
23376;SDS011;14353;46.070;13.222;2022-08-01T03:55:44;0.98;;;0.88;;
23376;SDS011;14353;46.070;13.222;2022-08-01T03:58:10;0.60;;;0.60;;
23376;SDS011;14353;46.070;13.222;2022-08-01T04:00:38;0.60;;;0.60;;
23376;SDS011;14353;46.070;13.222;2022-08-01T04:03:06;0.80;;;0.80;;
23376;SDS011;14353;46.070;13.222;2022-08-01T04:05:34;0.60;;;0.60;;
23376;SDS011;14353;46.070;13.222;2022-08-01T04:08:01;0.70;;;0.68;;
23376;SDS011;14353;46.070;13.222;2022-08-01T04:10:28;0.70;;;0.70;;
23376;SDS011;14353;46.070;13.222;2022-08-01T04:12:54;0.70;;;0.70;;
23376;SDS011;14353;46.070;13.222;2022-08-01T04:15:20;0.60;;;0.60;;
23376;SDS011;14353;46.070;13.222;2022-08-01T04:17:49;0.60;;;0.60;;
23376;SDS011;14353;46.070;13.222;2022-08-01T04:20:15;0.70;;;0.70;;
23376;SDS011;14353;46.070;13.222;2022-08-01T04:22:43;0.50;;;0.50;;
23376;SDS011;14353;46.070;13.222;2022-08-01T04:25:14;0.60;;;0.60;;
23376;SDS011;14353;46.070;13.222;2022-08-01T04:27:45;0.88;;;0.88;;
23376;SDS011;14353;46.070;13.222;2022-08-01T04:30:14;0.60;;;0.60;;
23376;SDS011;14353;46.070;13.222;2022-08-01T04:32:42;0.63;;;0.63;;
23376;SDS011;14353;46.070;13.222;2022-08-01T04:35:11;0.60;;;0.60;;
23376;SDS011;14353;46.070;13.222;2022-08-01T04:37:41;0.98;;;0.88;;
23376;SDS011;14353;46.070;13.222;2022-08-01T04:40:11;0.85;;;0.80;;
23376;SDS011;14353;46.070;13.222;2022-08-01T04:42:37;0.70;;;0.70;;
23376;SDS011;14353;46.070;13.222;2022-08-01T04:45:03;0.82;;;0.63;;
23376;SDS011;14353;46.070;13.222;2022-08-01T04:47:30;0.70;;;0.70;;
23376;SDS011;14353;46.070;13.222;2022-08-01T04:49:56;0.88;;;0.60;;
23376;SDS011;14353;46.070;13.222;2022-08-01T04:52:22;1.00;;;0.82;;
23376;SDS011;14353;46.070;13.222;2022-08-01T04:54:57;0.60;;;0.60;;
23376;SDS011;14353;46.070;13.222;2022-08-01T04:57:23;1.85;;;0.85;;
23376;SDS011;14353;46.070;13.222;2022-08-01T04:59:48;0.60;;;0.60;;
23376;SDS011;14353;46.070;13.222;2022-08-01T05:02:21;0.60;;;0.60;;
23376;SDS011;14353;46.070;13.222;2022-08-01T05:04:48;0.90;;;0.77;;
23376;SDS011;14353;46.070;13.222;2022-08-01T05:07:14;0.70;;;0.70;;
23376;SDS011;14353;46.070;13.222;2022-08-01T05:09:41;0.95;;;0.60;;
23376;SDS011;14353;46.070;13.222;2022-08-01T05:12:07;0.77;;;0.70;;
23376;SDS011;14353;46.070;13.222;2022-08-01T05:14:34;0.68;;;0.68;;
23376;SDS011;14353;46.070;13.222;2022-08-01T05:17:01;0.60;;;0.60;;
23376;SDS011;14353;46.070;13.222;2022-08-01T05:19:38;0.60;;;0.60;;
23376;SDS011;14353;46.070;13.222;2022-08-01T05:22:06;0.70;;;0.70;;
23376;SDS011;14353;46.070;13.222;2022-08-01T05:24:33;0.70;;;0.70;;
23376;SDS011;14353;46.070;13.222;2022-08-01T05:27:02;0.70;;;0.70;;
23376;SDS011;14353;46.070;13.222;2022-08-01T05:29:28;0.80;;;0.80;;
23376;SDS011;14353;46.070;13.222;2022-08-01T05:31:54;0.60;;;0.60;;
23376;SDS011;14353;46.070;13.222;2022-08-01T05:34:21;1.85;;;0.75;;
23376;SDS011;14353;46.070;13.222;2022-08-01T05:36:48;0.70;;;0.70;;
23376;SDS011;14353;46.070;13.222;2022-08-01T05:39:14;0.77;;;0.77;;
23376;SDS011;14353;46.070;13.222;2022-08-01T05:41:40;0.70;;;0.70;;
23376;SDS011;14353;46.070;13.222;2022-08-01T05:44:06;0.70;;;0.70;;
23376;SDS011;14353;46.070;13.222;2022-08-01T05:46:33;0.60;;;0.60;;
23376;SDS011;14353;46.070;13.222;2022-08-01T05:49:00;0.68;;;0.68;;
23376;SDS011;14353;46.070;13.222;2022-08-01T05:51:27;0.60;;;0.60;;
23376;SDS011;14353;46.070;13.222;2022-08-01T05:53:53;0.65;;;0.65;;
23376;SDS011;14353;46.070;13.222;2022-08-01T05:56:19;0.70;;;0.70;;
23376;SDS011;14353;46.070;13.222;2022-08-01T05:58:46;0.70;;;0.70;;
23376;SDS011;14353;46.070;13.222;2022-08-01T06:01:14;0.93;;;0.80;;
23376;SDS011;14353;46.070;13.222;2022-08-01T06:03:41;0.90;;;0.90;;
23376;SDS011;14353;46.070;13.222;2022-08-01T06:06:07;0.65;;;0.65;;
23376;SDS011;14353;46.070;13.222;2022-08-01T06:08:33;0.60;;;0.60;;
23376;SDS011;14353;46.070;13.222;2022-08-01T06:10:59;0.70;;;0.70;;
23376;SDS011;14353;46.070;13.222;2022-08-01T06:13:25;5.70;;;1.40;;
23376;SDS011;14353;46.070;13.222;2022-08-01T06:15:51;6.25;;;1.48;;
23376;SDS011;14353;46.070;13.222;2022-08-01T06:18:17;8.45;;;1.52;;
23376;SDS011;14353;46.070;13.222;2022-08-01T06:20:43;3.28;;;1.40;;
23376;SDS011;14353;46.070;13.222;2022-08-01T06:23:10;4.90;;;1.55;;
23376;SDS011;14353;46.070;13.222;2022-08-01T06:25:36;2.75;;;1.40;;
23376;SDS011;14353;46.070;13.222;2022-08-01T06:28:02;8.55;;;1.60;;
23376;SDS011;14353;46.070;13.222;2022-08-01T06:30:29;23.35;;;2.90;;
23376;SDS011;14353;46.070;13.222;2022-08-01T06:32:54;19.52;;;2.65;;
23376;SDS011;14353;46.070;13.222;2022-08-01T06:35:23;16.50;;;2.10;;
23376;SDS011;14353;46.070;13.222;2022-08-01T06:37:49;23.05;;;2.60;;
23376;SDS011;14353;46.070;13.222;2022-08-01T06:40:15;20.15;;;2.45;;
23376;SDS011;14353;46.070;13.222;2022-08-01T06:42:41;3.58;;;1.40;;
23376;SDS011;14353;46.070;13.222;2022-08-01T06:45:08;9.02;;;1.75;;
23376;SDS011;14353;46.070;13.222;2022-08-01T06:47:36;9.40;;;2.05;;
23376;SDS011;14353;46.070;13.222;2022-08-01T06:50:03;7.95;;;1.75;;
23376;SDS011;14353;46.070;13.222;2022-08-01T06:52:30;5.43;;;1.63;;
23376;SDS011;14353;46.070;13.222;2022-08-01T06:54:56;6.97;;;1.52;;
23376;SDS011;14353;46.070;13.222;2022-08-01T06:57:22;5.88;;;1.70;;
23376;SDS011;14353;46.070;13.222;2022-08-01T06:59:47;3.08;;;1.67;;
23376;SDS011;14353;46.070;13.222;2022-08-01T07:02:13;5.35;;;1.55;;
23376;SDS011;14353;46.070;13.222;2022-08-01T07:04:39;3.80;;;1.70;;
23376;SDS011;14353;46.070;13.222;2022-08-01T07:07:05;1.85;;;1.33;;
23376;SDS011;14353;46.070;13.222;2022-08-01T07:09:31;8.40;;;1.80;;
23376;SDS011;14353;46.070;13.222;2022-08-01T07:11:58;5.50;;;1.40;;
23376;SDS011;14353;46.070;13.222;2022-08-01T07:14:24;2.15;;;1.35;;
23376;SDS011;14353;46.070;13.222;2022-08-01T07:16:50;2.97;;;1.58;;
23376;SDS011;14353;46.070;13.222;2022-08-01T07:19:17;4.05;;;1.55;;
23376;SDS011;14353;46.070;13.222;2022-08-01T07:21:43;2.22;;;1.55;;
23376;SDS011;14353;46.070;13.222;2022-08-01T07:24:10;2.97;;;1.65;;
23376;SDS011;14353;46.070;13.222;2022-08-01T07:26:38;4.78;;;1.50;;
23376;SDS011;14353;46.070;13.222;2022-08-01T07:29:05;2.47;;;1.55;;
23376;SDS011;14353;46.070;13.222;2022-08-01T07:31:34;4.20;;;1.55;;
23376;SDS011;14353;46.070;13.222;2022-08-01T07:34:00;3.00;;;1.77;;
23376;SDS011;14353;46.070;13.222;2022-08-01T07:36:26;4.05;;;1.67;;
23376;SDS011;14353;46.070;13.222;2022-08-01T07:38:52;3.72;;;1.55;;
23376;SDS011;14353;46.070;13.222;2022-08-01T07:41:18;2.22;;;1.50;;
23376;SDS011;14353;46.070;13.222;2022-08-01T07:43:44;1.92;;;1.50;;
23376;SDS011;14353;46.070;13.222;2022-08-01T07:46:10;2.50;;;1.35;;
23376;SDS011;14353;46.070;13.222;2022-08-01T07:48:36;2.05;;;1.40;;
23376;SDS011;14353;46.070;13.222;2022-08-01T07:51:04;3.33;;;1.40;;
23376;SDS011;14353;46.070;13.222;2022-08-01T07:53:30;2.17;;;1.40;;
23376;SDS011;14353;46.070;13.222;2022-08-01T07:55:56;3.50;;;1.55;;
23376;SDS011;14353;46.070;13.222;2022-08-01T07:58:22;3.75;;;1.50;;
23376;SDS011;14353;46.070;13.222;2022-08-01T08:00:48;3.75;;;1.50;;
23376;SDS011;14353;46.070;13.222;2022-08-01T08:03:14;4.13;;;1.40;;
23376;SDS011;14353;46.070;13.222;2022-08-01T08:05:40;3.28;;;1.30;;
23376;SDS011;14353;46.070;13.222;2022-08-01T08:08:06;2.97;;;1.20;;
23376;SDS011;14353;46.070;13.222;2022-08-01T08:10:34;2.10;;;1.50;;
23376;SDS011;14353;46.070;13.222;2022-08-01T08:13:00;3.45;;;1.48;;
23376;SDS011;14353;46.070;13.222;2022-08-01T08:15:27;4.50;;;1.70;;
23376;SDS011;14353;46.070;13.222;2022-08-01T08:17:53;3.58;;;1.38;;
23376;SDS011;14353;46.070;13.222;2022-08-01T08:20:19;2.22;;;1.30;;
23376;SDS011;14353;46.070;13.222;2022-08-01T08:22:50;6.05;;;1.50;;
23376;SDS011;14353;46.070;13.222;2022-08-01T08:25:16;3.58;;;1.50;;
23376;SDS011;14353;46.070;13.222;2022-08-01T08:27:44;6.10;;;1.50;;
23376;SDS011;14353;46.070;13.222;2022-08-01T08:30:11;7.10;;;1.70;;
23376;SDS011;14353;46.070;13.222;2022-08-01T08:32:38;8.85;;;1.65;;
23376;SDS011;14353;46.070;13.222;2022-08-01T08:35:05;6.68;;;1.60;;
23376;SDS011;14353;46.070;13.222;2022-08-01T08:37:32;2.85;;;1.40;;
23376;SDS011;14353;46.070;13.222;2022-08-01T08:39:59;8.10;;;1.33;;
23376;SDS011;14353;46.070;13.222;2022-08-01T08:42:25;1.85;;;1.20;;
23376;SDS011;14353;46.070;13.222;2022-08-01T08:44:52;4.20;;;1.30;;
23376;SDS011;14353;46.070;13.222;2022-08-01T08:47:20;4.18;;;1.20;;
23376;SDS011;14353;46.070;13.222;2022-08-01T08:49:48;3.88;;;1.30;;
23376;SDS011;14353;46.070;13.222;2022-08-01T08:52:17;2.58;;;1.10;;
23376;SDS011;14353;46.070;13.222;2022-08-01T08:54:45;2.50;;;1.38;;
23376;SDS011;14353;46.070;13.222;2022-08-01T08:57:12;3.55;;;1.30;;
23376;SDS011;14353;46.070;13.222;2022-08-01T08:59:38;2.45;;;1.10;;
23376;SDS011;14353;46.070;13.222;2022-08-01T09:02:05;4.03;;;1.33;;
23376;SDS011;14353;46.070;13.222;2022-08-01T09:04:32;2.65;;;1.20;;
23376;SDS011;14353;46.070;13.222;2022-08-01T09:06:58;3.40;;;1.30;;
23376;SDS011;14353;46.070;13.222;2022-08-01T09:09:24;1.90;;;1.30;;
23376;SDS011;14353;46.070;13.222;2022-08-01T09:11:50;1.42;;;1.17;;
23376;SDS011;14353;46.070;13.222;2022-08-01T09:14:17;1.83;;;0.98;;
23376;SDS011;14353;46.070;13.222;2022-08-01T09:17:02;1.50;;;1.30;;
23376;SDS011;14353;46.070;13.222;2022-08-01T09:19:37;2.50;;;1.20;;
23376;SDS011;14353;46.070;13.222;2022-08-01T09:22:14;2.40;;;1.50;;
23376;SDS011;14353;46.070;13.222;2022-08-01T09:27:32;2.17;;;1.20;;
23376;SDS011;14353;46.070;13.222;2022-08-01T09:32:37;7.18;;;1.40;;
23376;SDS011;14353;46.070;13.222;2022-08-01T09:35:23;3.20;;;1.57;;
23376;SDS011;14353;46.070;13.222;2022-08-01T09:37:50;2.25;;;1.52;;
23376;SDS011;14353;46.070;13.222;2022-08-01T09:40:16;4.28;;;1.40;;
23376;SDS011;14353;46.070;13.222;2022-08-01T09:42:42;3.72;;;1.30;;
23376;SDS011;14353;46.070;13.222;2022-08-01T09:45:08;2.30;;;1.30;;
23376;SDS011;14353;46.070;13.222;2022-08-01T09:47:38;1.80;;;1.10;;
23376;SDS011;14353;46.070;13.222;2022-08-01T09:50:04;2.17;;;1.30;;
23376;SDS011;14353;46.070;13.222;2022-08-01T09:52:32;6.97;;;1.40;;
23376;SDS011;14353;46.070;13.222;2022-08-01T09:54:58;6.22;;;1.52;;
23376;SDS011;14353;46.070;13.222;2022-08-01T09:57:26;3.42;;;1.10;;
23376;SDS011;14353;46.070;13.222;2022-08-01T09:59:54;2.60;;;1.27;;
23376;SDS011;14353;46.070;13.222;2022-08-01T10:02:28;1.98;;;1.30;;
23376;SDS011;14353;46.070;13.222;2022-08-01T10:04:58;3.22;;;1.20;;
23376;SDS011;14353;46.070;13.222;2022-08-01T10:07:26;5.47;;;1.20;;
23376;SDS011;14353;46.070;13.222;2022-08-01T10:09:52;2.72;;;1.30;;
23376;SDS011;14353;46.070;13.222;2022-08-01T10:12:19;3.95;;;1.20;;
23376;SDS011;14353;46.070;13.222;2022-08-01T10:14:48;5.18;;;1.30;;
23376;SDS011;14353;46.070;13.222;2022-08-01T10:17:15;7.05;;;1.30;;
23376;SDS011;14353;46.070;13.222;2022-08-01T10:19:43;3.80;;;1.30;;
23376;SDS011;14353;46.070;13.222;2022-08-01T10:22:11;2.75;;;1.20;;
23376;SDS011;14353;46.070;13.222;2022-08-01T10:24:44;1.80;;;1.20;;
23376;SDS011;14353;46.070;13.222;2022-08-01T10:27:13;1.83;;;1.02;;
23376;SDS011;14353;46.070;13.222;2022-08-01T10:29:43;2.65;;;1.25;;
23376;SDS011;14353;46.070;13.222;2022-08-01T10:32:13;3.03;;;1.13;;
23376;SDS011;14353;46.070;13.222;2022-08-01T10:34:40;2.78;;;1.45;;
23376;SDS011;14353;46.070;13.222;2022-08-01T10:37:06;3.97;;;1.13;;
23376;SDS011;14353;46.070;13.222;2022-08-01T10:39:33;5.18;;;1.42;;
23376;SDS011;14353;46.070;13.222;2022-08-01T10:42:00;1.48;;;1.30;;
23376;SDS011;14353;46.070;13.222;2022-08-01T10:44:28;3.78;;;1.40;;
23376;SDS011;14353;46.070;13.222;2022-08-01T10:46:57;3.17;;;1.05;;
23376;SDS011;14353;46.070;13.222;2022-08-01T10:49:34;4.45;;;1.50;;
23376;SDS011;14353;46.070;13.222;2022-08-01T10:52:16;2.75;;;1.13;;
23376;SDS011;14353;46.070;13.222;2022-08-01T10:54:43;3.30;;;1.20;;
23376;SDS011;14353;46.070;13.222;2022-08-01T10:57:10;4.05;;;1.42;;
23376;SDS011;14353;46.070;13.222;2022-08-01T10:59:47;2.55;;;1.30;;
23376;SDS011;14353;46.070;13.222;2022-08-01T11:02:28;1.85;;;1.35;;
23376;SDS011;14353;46.070;13.222;2022-08-01T11:04:58;2.90;;;1.20;;
23376;SDS011;14353;46.070;13.222;2022-08-01T11:13:01;2.70;;;1.25;;
23376;SDS011;14353;46.070;13.222;2022-08-01T11:15:32;2.70;;;1.20;;
23376;SDS011;14353;46.070;13.222;2022-08-01T11:17:59;1.58;;;1.20;;
23376;SDS011;14353;46.070;13.222;2022-08-01T11:23:47;2.38;;;1.20;;
23376;SDS011;14353;46.070;13.222;2022-08-01T11:26:14;1.20;;;1.05;;
23376;SDS011;14353;46.070;13.222;2022-08-01T11:28:41;1.90;;;1.20;;
23376;SDS011;14353;46.070;13.222;2022-08-01T11:38:46;2.03;;;1.30;;
23376;SDS011;14353;46.070;13.222;2022-08-01T11:43:58;2.60;;;1.30;;
23376;SDS011;14353;46.070;13.222;2022-08-01T11:54:33;3.78;;;1.15;;
23376;SDS011;14353;46.070;13.222;2022-08-01T11:57:08;1.53;;;1.03;;
23376;SDS011;14353;46.070;13.222;2022-08-01T11:59:38;1.42;;;1.10;;
23376;SDS011;14353;46.070;13.222;2022-08-01T12:02:32;2.53;;;1.00;;
23376;SDS011;14353;46.070;13.222;2022-08-01T12:07:28;1.88;;;1.20;;
23376;SDS011;14353;46.070;13.222;2022-08-01T12:12:29;2.78;;;1.02;;
23376;SDS011;14353;46.070;13.222;2022-08-01T12:15:01;5.30;;;1.20;;
23376;SDS011;14353;46.070;13.222;2022-08-01T12:17:35;1.52;;;1.08;;
23376;SDS011;14353;46.070;13.222;2022-08-01T12:20:03;1.90;;;1.00;;
23376;SDS011;14353;46.070;13.222;2022-08-01T12:22:31;1.38;;;1.20;;
23376;SDS011;14353;46.070;13.222;2022-08-01T12:27:34;2.15;;;1.25;;
23376;SDS011;14353;46.070;13.222;2022-08-01T12:30:02;1.20;;;1.05;;
23376;SDS011;14353;46.070;13.222;2022-08-01T12:32:33;1.77;;;1.00;;
23376;SDS011;14353;46.070;13.222;2022-08-01T12:35:08;3.13;;;1.20;;
23376;SDS011;14353;46.070;13.222;2022-08-01T12:37:42;2.00;;;1.20;;
23376;SDS011;14353;46.070;13.222;2022-08-01T12:40:16;1.98;;;1.27;;
23376;SDS011;14353;46.070;13.222;2022-08-01T12:42:45;1.35;;;1.13;;
23376;SDS011;14353;46.070;13.222;2022-08-01T12:45:14;2.08;;;1.17;;
23376;SDS011;14353;46.070;13.222;2022-08-01T12:47:42;2.30;;;1.10;;
23376;SDS011;14353;46.070;13.222;2022-08-01T12:50:16;1.83;;;1.00;;
23376;SDS011;14353;46.070;13.222;2022-08-01T12:52:49;1.77;;;1.30;;
23376;SDS011;14353;46.070;13.222;2022-08-01T12:55:19;2.30;;;1.10;;
23376;SDS011;14353;46.070;13.222;2022-08-01T12:57:47;3.92;;;1.27;;
23376;SDS011;14353;46.070;13.222;2022-08-01T13:02:49;2.20;;;1.10;;
23376;SDS011;14353;46.070;13.222;2022-08-01T13:05:27;1.60;;;1.20;;
23376;SDS011;14353;46.070;13.222;2022-08-01T13:08:08;4.38;;;1.35;;
23376;SDS011;14353;46.070;13.222;2022-08-01T13:10:35;1.92;;;1.10;;
23376;SDS011;14353;46.070;13.222;2022-08-01T13:13:01;2.42;;;1.20;;
23376;SDS011;14353;46.070;13.222;2022-08-01T13:15:32;2.45;;;1.10;;
23376;SDS011;14353;46.070;13.222;2022-08-01T13:18:00;1.42;;;1.20;;
23376;SDS011;14353;46.070;13.222;2022-08-01T13:20:46;1.73;;;1.15;;
23376;SDS011;14353;46.070;13.222;2022-08-01T13:23:13;1.77;;;1.25;;
23376;SDS011;14353;46.070;13.222;2022-08-01T13:26:02;1.55;;;1.00;;
23376;SDS011;14353;46.070;13.222;2022-08-01T13:28:29;2.17;;;1.10;;
23376;SDS011;14353;46.070;13.222;2022-08-01T13:31:00;4.30;;;1.30;;
23376;SDS011;14353;46.070;13.222;2022-08-01T13:33:39;1.67;;;1.00;;
23376;SDS011;14353;46.070;13.222;2022-08-01T13:36:12;2.88;;;1.17;;
23376;SDS011;14353;46.070;13.222;2022-08-01T13:38:39;2.35;;;1.02;;
23376;SDS011;14353;46.070;13.222;2022-08-01T13:41:24;2.45;;;1.30;;
23376;SDS011;14353;46.070;13.222;2022-08-01T13:43:51;1.40;;;1.00;;
23376;SDS011;14353;46.070;13.222;2022-08-01T13:46:18;1.70;;;1.10;;
23376;SDS011;14353;46.070;13.222;2022-08-01T13:48:44;2.10;;;1.10;;
23376;SDS011;14353;46.070;13.222;2022-08-01T13:51:10;2.35;;;1.10;;
23376;SDS011;14353;46.070;13.222;2022-08-01T13:53:36;1.42;;;1.05;;
23376;SDS011;14353;46.070;13.222;2022-08-01T13:56:02;2.72;;;1.10;;
23376;SDS011;14353;46.070;13.222;2022-08-01T13:58:28;1.70;;;1.23;;
23376;SDS011;14353;46.070;13.222;2022-08-01T14:00:54;2.85;;;1.13;;
23376;SDS011;14353;46.070;13.222;2022-08-01T14:03:21;1.25;;;1.15;;
23376;SDS011;14353;46.070;13.222;2022-08-01T14:05:47;2.20;;;1.20;;
23376;SDS011;14353;46.070;13.222;2022-08-01T14:08:13;2.92;;;1.20;;
23376;SDS011;14353;46.070;13.222;2022-08-01T14:10:40;1.60;;;1.10;;
23376;SDS011;14353;46.070;13.222;2022-08-01T14:13:06;1.95;;;1.17;;
23376;SDS011;14353;46.070;13.222;2022-08-01T14:15:32;3.53;;;1.33;;
23376;SDS011;14353;46.070;13.222;2022-08-01T14:17:58;2.90;;;1.10;;
23376;SDS011;14353;46.070;13.222;2022-08-01T14:20:25;1.40;;;1.30;;
23376;SDS011;14353;46.070;13.222;2022-08-01T14:22:51;2.15;;;1.30;;
23376;SDS011;14353;46.070;13.222;2022-08-01T14:25:17;1.25;;;1.10;;
23376;SDS011;14353;46.070;13.222;2022-08-01T14:27:43;1.33;;;1.13;;
23376;SDS011;14353;46.070;13.222;2022-08-01T14:30:09;1.27;;;1.17;;
23376;SDS011;14353;46.070;13.222;2022-08-01T14:32:36;1.30;;;1.10;;
23376;SDS011;14353;46.070;13.222;2022-08-01T14:35:03;2.58;;;1.15;;
23376;SDS011;14353;46.070;13.222;2022-08-01T14:37:30;3.08;;;1.30;;
23376;SDS011;14353;46.070;13.222;2022-08-01T14:39:57;5.25;;;1.30;;
23376;SDS011;14353;46.070;13.222;2022-08-01T14:42:24;2.20;;;1.10;;
23376;SDS011;14353;46.070;13.222;2022-08-01T14:44:50;2.88;;;1.20;;
23376;SDS011;14353;46.070;13.222;2022-08-01T14:47:16;4.28;;;1.00;;
23376;SDS011;14353;46.070;13.222;2022-08-01T14:49:42;3.10;;;1.08;;
23376;SDS011;14353;46.070;13.222;2022-08-01T14:52:08;2.17;;;1.13;;
23376;SDS011;14353;46.070;13.222;2022-08-01T14:54:34;1.48;;;1.30;;
23376;SDS011;14353;46.070;13.222;2022-08-01T14:57:00;1.13;;;1.00;;
23376;SDS011;14353;46.070;13.222;2022-08-01T14:59:26;1.75;;;1.20;;
23376;SDS011;14353;46.070;13.222;2022-08-01T15:01:51;2.95;;;1.00;;
23376;SDS011;14353;46.070;13.222;2022-08-01T15:04:17;4.82;;;1.15;;
23376;SDS011;14353;46.070;13.222;2022-08-01T15:06:43;1.42;;;1.10;;
23376;SDS011;14353;46.070;13.222;2022-08-01T15:09:12;2.60;;;1.20;;
23376;SDS011;14353;46.070;13.222;2022-08-01T15:11:38;2.47;;;1.10;;
23376;SDS011;14353;46.070;13.222;2022-08-01T15:14:03;1.88;;;0.85;;
23376;SDS011;14353;46.070;13.222;2022-08-01T15:16:47;1.88;;;0.90;;
23376;SDS011;14353;46.070;13.222;2022-08-01T15:19:14;2.75;;;1.00;;
23376;SDS011;14353;46.070;13.222;2022-08-01T15:21:39;2.70;;;1.30;;
23376;SDS011;14353;46.070;13.222;2022-08-01T15:24:06;3.72;;;1.30;;
23376;SDS011;14353;46.070;13.222;2022-08-01T15:26:32;1.35;;;0.90;;
23376;SDS011;14353;46.070;13.222;2022-08-01T15:28:58;4.85;;;1.00;;
23376;SDS011;14353;46.070;13.222;2022-08-01T15:31:23;1.27;;;1.00;;
23376;SDS011;14353;46.070;13.222;2022-08-01T15:33:49;2.05;;;1.17;;